sensor_id;sensor_type;location;lat;lon;timestamp;P1;durP1;ratioP1;P2;durP2;ratioP2
53915;SDS011;39827;49.652;18.770;2024-01-30T00:00:33;293.65;;;168.38;;
53915;SDS011;39827;49.652;18.770;2024-01-30T00:02:59;514.28;;;233.30;;
53915;SDS011;39827;49.652;18.770;2024-01-30T00:05:24;187.18;;;166.73;;
53915;SDS011;39827;49.652;18.770;2024-01-30T00:07:50;193.27;;;175.52;;
53915;SDS011;39827;49.652;18.770;2024-01-30T00:10:15;178.35;;;158.05;;
53915;SDS011;39827;49.652;18.770;2024-01-30T00:12:40;119.72;;;109.45;;
53915;SDS011;39827;49.652;18.770;2024-01-30T00:15:06;171.40;;;155.70;;
53915;SDS011;39827;49.652;18.770;2024-01-30T00:17:34;433.27;;;274.80;;
53915;SDS011;39827;49.652;18.770;2024-01-30T00:20:00;58.15;;;54.72;;
53915;SDS011;39827;49.652;18.770;2024-01-30T00:22:26;209.38;;;172.20;;
53915;SDS011;39827;49.652;18.770;2024-01-30T00:24:51;199.85;;;138.90;;
53915;SDS011;39827;49.652;18.770;2024-01-30T00:27:17;137.15;;;124.32;;
53915;SDS011;39827;49.652;18.770;2024-01-30T00:29:42;324.10;;;237.65;;
53915;SDS011;39827;49.652;18.770;2024-01-30T00:32:07;219.15;;;174.30;;
53915;SDS011;39827;49.652;18.770;2024-01-30T00:34:33;346.90;;;231.45;;
53915;SDS011;39827;49.652;18.770;2024-01-30T00:36:58;104.13;;;80.18;;
53915;SDS011;39827;49.652;18.770;2024-01-30T00:39:24;331.48;;;217.52;;
53915;SDS011;39827;49.652;18.770;2024-01-30T00:41:49;371.50;;;239.07;;
53915;SDS011;39827;49.652;18.770;2024-01-30T00:44:14;599.13;;;279.52;;
53915;SDS011;39827;49.652;18.770;2024-01-30T00:46:40;530.13;;;264.05;;
53915;SDS011;39827;49.652;18.770;2024-01-30T00:49:05;120.13;;;108.03;;
53915;SDS011;39827;49.652;18.770;2024-01-30T00:51:31;326.13;;;161.68;;
53915;SDS011;39827;49.652;18.770;2024-01-30T00:53:56;270.42;;;154.88;;
53915;SDS011;39827;49.652;18.770;2024-01-30T00:56:21;236.10;;;153.73;;
53915;SDS011;39827;49.652;18.770;2024-01-30T00:58:47;343.13;;;197.07;;
53915;SDS011;39827;49.652;18.770;2024-01-30T01:01:12;182.95;;;165.73;;
53915;SDS011;39827;49.652;18.770;2024-01-30T01:03:38;622.75;;;303.13;;
53915;SDS011;39827;49.652;18.770;2024-01-30T01:06:05;156.63;;;142.02;;
53915;SDS011;39827;49.652;18.770;2024-01-30T01:08:31;349.85;;;172.07;;
53915;SDS011;39827;49.652;18.770;2024-01-30T01:10:56;256.05;;;197.75;;
53915;SDS011;39827;49.652;18.770;2024-01-30T01:13:21;476.40;;;252.75;;
53915;SDS011;39827;49.652;18.770;2024-01-30T01:15:47;170.02;;;141.35;;
53915;SDS011;39827;49.652;18.770;2024-01-30T01:18:12;158.15;;;125.55;;
53915;SDS011;39827;49.652;18.770;2024-01-30T01:20:37;153.82;;;142.13;;
53915;SDS011;39827;49.652;18.770;2024-01-30T01:23:03;451.05;;;244.85;;
53915;SDS011;39827;49.652;18.770;2024-01-30T01:25:28;252.85;;;211.65;;
53915;SDS011;39827;49.652;18.770;2024-01-30T01:27:54;197.75;;;176.88;;
53915;SDS011;39827;49.652;18.770;2024-01-30T01:30:19;300.10;;;219.80;;
53915;SDS011;39827;49.652;18.770;2024-01-30T01:32:49;271.55;;;203.73;;
53915;SDS011;39827;49.652;18.770;2024-01-30T01:35:24;243.88;;;189.93;;
53915;SDS011;39827;49.652;18.770;2024-01-30T01:37:53;244.35;;;142.40;;
53915;SDS011;39827;49.652;18.770;2024-01-30T01:40:23;421.35;;;236.60;;
53915;SDS011;39827;49.652;18.770;2024-01-30T01:42:50;128.30;;;113.32;;
53915;SDS011;39827;49.652;18.770;2024-01-30T01:45:19;95.57;;;88.35;;
53915;SDS011;39827;49.652;18.770;2024-01-30T01:47:46;147.60;;;114.50;;
53915;SDS011;39827;49.652;18.770;2024-01-30T01:50:15;283.60;;;166.45;;
53915;SDS011;39827;49.652;18.770;2024-01-30T01:52:46;409.23;;;284.95;;
53915;SDS011;39827;49.652;18.770;2024-01-30T01:55:12;211.13;;;188.35;;
53915;SDS011;39827;49.652;18.770;2024-01-30T01:57:39;247.68;;;165.07;;
53915;SDS011;39827;49.652;18.770;2024-01-30T02:00:06;403.50;;;224.32;;
53915;SDS011;39827;49.652;18.770;2024-01-30T02:02:34;75.95;;;68.88;;
53915;SDS011;39827;49.652;18.770;2024-01-30T02:05:00;364.40;;;195.30;;
53915;SDS011;39827;49.652;18.770;2024-01-30T02:07:26;220.85;;;177.13;;
53915;SDS011;39827;49.652;18.770;2024-01-30T02:09:53;380.55;;;257.75;;
53915;SDS011;39827;49.652;18.770;2024-01-30T02:12:18;315.10;;;234.88;;
53915;SDS011;39827;49.652;18.770;2024-01-30T02:14:47;170.85;;;119.65;;
53915;SDS011;39827;49.652;18.770;2024-01-30T02:17:14;189.73;;;128.57;;
53915;SDS011;39827;49.652;18.770;2024-01-30T02:19:40;136.38;;;115.80;;
53915;SDS011;39827;49.652;18.770;2024-01-30T02:22:06;287.80;;;245.90;;
53915;SDS011;39827;49.652;18.770;2024-01-30T02:24:32;381.35;;;176.95;;
53915;SDS011;39827;49.652;18.770;2024-01-30T02:26:57;171.77;;;131.65;;
53915;SDS011;39827;49.652;18.770;2024-01-30T02:29:23;259.38;;;190.88;;
53915;SDS011;39827;49.652;18.770;2024-01-30T02:31:48;256.08;;;225.20;;
53915;SDS011;39827;49.652;18.770;2024-01-30T02:34:14;270.25;;;163.43;;
53915;SDS011;39827;49.652;18.770;2024-01-30T02:36:42;181.25;;;128.82;;
53915;SDS011;39827;49.652;18.770;2024-01-30T02:39:08;189.93;;;163.55;;
53915;SDS011;39827;49.652;18.770;2024-01-30T02:41:34;432.38;;;271.45;;
53915;SDS011;39827;49.652;18.770;2024-01-30T02:44:00;122.57;;;112.47;;
53915;SDS011;39827;49.652;18.770;2024-01-30T02:46:25;392.77;;;259.33;;
53915;SDS011;39827;49.652;18.770;2024-01-30T02:48:51;201.77;;;149.55;;
53915;SDS011;39827;49.652;18.770;2024-01-30T02:51:16;152.43;;;137.70;;
53915;SDS011;39827;49.652;18.770;2024-01-30T02:53:41;551.53;;;244.88;;
53915;SDS011;39827;49.652;18.770;2024-01-30T02:56:07;426.80;;;266.13;;
53915;SDS011;39827;49.652;18.770;2024-01-30T02:58:34;468.25;;;249.57;;
53915;SDS011;39827;49.652;18.770;2024-01-30T03:01:02;335.52;;;253.40;;
53915;SDS011;39827;49.652;18.770;2024-01-30T03:03:28;307.80;;;199.15;;
53915;SDS011;39827;49.652;18.770;2024-01-30T03:05:53;145.00;;;131.38;;
53915;SDS011;39827;49.652;18.770;2024-01-30T03:08:19;290.23;;;211.25;;
53915;SDS011;39827;49.652;18.770;2024-01-30T03:10:45;224.35;;;201.90;;
53915;SDS011;39827;49.652;18.770;2024-01-30T03:13:10;184.68;;;129.50;;
53915;SDS011;39827;49.652;18.770;2024-01-30T03:15:35;176.95;;;161.52;;
53915;SDS011;39827;49.652;18.770;2024-01-30T03:18:01;195.38;;;125.75;;
53915;SDS011;39827;49.652;18.770;2024-01-30T03:20:28;236.23;;;203.27;;
53915;SDS011;39827;49.652;18.770;2024-01-30T03:22:54;32.75;;;29.73;;
53915;SDS011;39827;49.652;18.770;2024-01-30T03:25:20;210.10;;;158.75;;
53915;SDS011;39827;49.652;18.770;2024-01-30T03:27:46;305.67;;;234.90;;
53915;SDS011;39827;49.652;18.770;2024-01-30T03:30:11;473.65;;;235.48;;
53915;SDS011;39827;49.652;18.770;2024-01-30T03:32:36;284.38;;;185.88;;
53915;SDS011;39827;49.652;18.770;2024-01-30T03:35:02;132.30;;;112.15;;
53915;SDS011;39827;49.652;18.770;2024-01-30T03:37:27;177.38;;;150.93;;
53915;SDS011;39827;49.652;18.770;2024-01-30T03:39:53;174.65;;;140.18;;
53915;SDS011;39827;49.652;18.770;2024-01-30T03:42:18;344.92;;;278.85;;
53915;SDS011;39827;49.652;18.770;2024-01-30T03:44:44;231.23;;;168.80;;
53915;SDS011;39827;49.652;18.770;2024-01-30T03:47:09;177.48;;;152.02;;
53915;SDS011;39827;49.652;18.770;2024-01-30T03:49:34;360.27;;;231.38;;
53915;SDS011;39827;49.652;18.770;2024-01-30T03:52:00;255.77;;;186.90;;
53915;SDS011;39827;49.652;18.770;2024-01-30T03:54:25;419.92;;;263.88;;
53915;SDS011;39827;49.652;18.770;2024-01-30T03:56:50;146.23;;;135.02;;
53915;SDS011;39827;49.652;18.770;2024-01-30T03:59:16;211.80;;;152.15;;
53915;SDS011;39827;49.652;18.770;2024-01-30T04:01:47;253.63;;;139.90;;
53915;SDS011;39827;49.652;18.770;2024-01-30T04:04:12;174.05;;;153.02;;
53915;SDS011;39827;49.652;18.770;2024-01-30T04:06:38;88.40;;;79.65;;
53915;SDS011;39827;49.652;18.770;2024-01-30T04:09:03;174.13;;;160.75;;
53915;SDS011;39827;49.652;18.770;2024-01-30T04:11:28;150.68;;;114.47;;
53915;SDS011;39827;49.652;18.770;2024-01-30T04:13:54;462.80;;;263.60;;
53915;SDS011;39827;49.652;18.770;2024-01-30T04:16:20;542.53;;;301.48;;
53915;SDS011;39827;49.652;18.770;2024-01-30T04:18:47;86.55;;;78.32;;
53915;SDS011;39827;49.652;18.770;2024-01-30T04:21:12;149.27;;;96.10;;
53915;SDS011;39827;49.652;18.770;2024-01-30T04:23:37;369.33;;;249.90;;
53915;SDS011;39827;49.652;18.770;2024-01-30T04:26:03;198.43;;;177.07;;
53915;SDS011;39827;49.652;18.770;2024-01-30T04:28:28;400.65;;;247.82;;
53915;SDS011;39827;49.652;18.770;2024-01-30T04:30:55;342.02;;;203.50;;
53915;SDS011;39827;49.652;18.770;2024-01-30T04:33:20;253.20;;;222.50;;
53915;SDS011;39827;49.652;18.770;2024-01-30T04:35:45;463.50;;;256.90;;
53915;SDS011;39827;49.652;18.770;2024-01-30T04:38:11;238.18;;;130.05;;
53915;SDS011;39827;49.652;18.770;2024-01-30T04:40:36;657.13;;;309.50;;
53915;SDS011;39827;49.652;18.770;2024-01-30T04:43:01;213.23;;;169.88;;
53915;SDS011;39827;49.652;18.770;2024-01-30T04:45:27;92.03;;;82.18;;
53915;SDS011;39827;49.652;18.770;2024-01-30T04:47:52;284.52;;;208.10;;
53915;SDS011;39827;49.652;18.770;2024-01-30T04:50:18;288.65;;;202.18;;
53915;SDS011;39827;49.652;18.770;2024-01-30T04:52:44;521.60;;;227.50;;
53915;SDS011;39827;49.652;18.770;2024-01-30T04:55:09;387.35;;;182.68;;
53915;SDS011;39827;49.652;18.770;2024-01-30T04:57:34;166.60;;;148.23;;
53915;SDS011;39827;49.652;18.770;2024-01-30T05:00:00;351.38;;;182.00;;
53915;SDS011;39827;49.652;18.770;2024-01-30T05:02:25;289.88;;;194.70;;
53915;SDS011;39827;49.652;18.770;2024-01-30T05:04:52;148.10;;;133.85;;
53915;SDS011;39827;49.652;18.770;2024-01-30T05:07:17;183.48;;;143.20;;
53915;SDS011;39827;49.652;18.770;2024-01-30T05:09:43;180.98;;;147.18;;
53915;SDS011;39827;49.652;18.770;2024-01-30T05:12:08;191.75;;;131.45;;
53915;SDS011;39827;49.652;18.770;2024-01-30T05:14:34;480.67;;;266.27;;
53915;SDS011;39827;49.652;18.770;2024-01-30T05:16:59;313.08;;;195.38;;
53915;SDS011;39827;49.652;18.770;2024-01-30T05:19:25;300.38;;;221.48;;
53915;SDS011;39827;49.652;18.770;2024-01-30T05:21:50;158.18;;;145.52;;
53915;SDS011;39827;49.652;18.770;2024-01-30T05:24:15;339.17;;;148.57;;
53915;SDS011;39827;49.652;18.770;2024-01-30T05:26:41;361.40;;;208.30;;
53915;SDS011;39827;49.652;18.770;2024-01-30T05:29:06;124.88;;;113.25;;
53915;SDS011;39827;49.652;18.770;2024-01-30T05:31:32;170.32;;;156.52;;
53915;SDS011;39827;49.652;18.770;2024-01-30T05:33:59;225.95;;;123.43;;
53915;SDS011;39827;49.652;18.770;2024-01-30T05:36:24;251.50;;;183.18;;
53915;SDS011;39827;49.652;18.770;2024-01-30T05:38:50;319.58;;;215.98;;
53915;SDS011;39827;49.652;18.770;2024-01-30T05:41:16;305.27;;;195.80;;
53915;SDS011;39827;49.652;18.770;2024-01-30T05:43:41;199.65;;;138.95;;
53915;SDS011;39827;49.652;18.770;2024-01-30T05:46:06;269.42;;;194.80;;
53915;SDS011;39827;49.652;18.770;2024-01-30T05:48:32;87.60;;;77.93;;
53915;SDS011;39827;49.652;18.770;2024-01-30T05:50:58;549.15;;;264.48;;
53915;SDS011;39827;49.652;18.770;2024-01-30T05:53:24;232.85;;;170.50;;
53915;SDS011;39827;49.652;18.770;2024-01-30T05:55:50;417.10;;;214.68;;
53915;SDS011;39827;49.652;18.770;2024-01-30T05:58:15;381.80;;;278.00;;
53915;SDS011;39827;49.652;18.770;2024-01-30T06:00:41;257.45;;;176.60;;
53915;SDS011;39827;49.652;18.770;2024-01-30T06:03:07;426.52;;;237.25;;
53915;SDS011;39827;49.652;18.770;2024-01-30T06:05:32;202.23;;;142.63;;
53915;SDS011;39827;49.652;18.770;2024-01-30T06:07:58;523.10;;;236.43;;
53915;SDS011;39827;49.652;18.770;2024-01-30T06:10:23;304.67;;;196.68;;
53915;SDS011;39827;49.652;18.770;2024-01-30T06:12:48;651.92;;;291.50;;
53915;SDS011;39827;49.652;18.770;2024-01-30T06:15:14;432.45;;;205.38;;
53915;SDS011;39827;49.652;18.770;2024-01-30T06:17:39;255.77;;;147.75;;
53915;SDS011;39827;49.652;18.770;2024-01-30T06:20:05;110.75;;;101.60;;
53915;SDS011;39827;49.652;18.770;2024-01-30T06:22:31;127.13;;;115.45;;
53915;SDS011;39827;49.652;18.770;2024-01-30T06:24:56;314.98;;;197.15;;
53915;SDS011;39827;49.652;18.770;2024-01-30T06:27:22;290.83;;;158.07;;
53915;SDS011;39827;49.652;18.770;2024-01-30T06:29:47;288.52;;;170.77;;
53915;SDS011;39827;49.652;18.770;2024-01-30T06:32:12;550.35;;;288.05;;
53915;SDS011;39827;49.652;18.770;2024-01-30T06:34:38;239.57;;;192.07;;
53915;SDS011;39827;49.652;18.770;2024-01-30T06:37:05;321.65;;;180.68;;
53915;SDS011;39827;49.652;18.770;2024-01-30T06:39:30;175.13;;;158.27;;
53915;SDS011;39827;49.652;18.770;2024-01-30T06:41:55;348.92;;;192.88;;
53915;SDS011;39827;49.652;18.770;2024-01-30T06:44:21;495.35;;;232.57;;
53915;SDS011;39827;49.652;18.770;2024-01-30T06:46:47;442.52;;;247.20;;
53915;SDS011;39827;49.652;18.770;2024-01-30T06:49:12;110.65;;;101.43;;
53915;SDS011;39827;49.652;18.770;2024-01-30T06:51:37;287.15;;;168.38;;
53915;SDS011;39827;49.652;18.770;2024-01-30T06:54:03;305.95;;;233.20;;
53915;SDS011;39827;49.652;18.770;2024-01-30T06:56:29;555.35;;;253.15;;
53915;SDS011;39827;49.652;18.770;2024-01-30T06:58:55;430.02;;;261.77;;
53915;SDS011;39827;49.652;18.770;2024-01-30T07:01:20;764.15;;;286.45;;
53915;SDS011;39827;49.652;18.770;2024-01-30T07:03:46;564.63;;;274.55;;
53915;SDS011;39827;49.652;18.770;2024-01-30T07:06:11;379.73;;;209.77;;
53915;SDS011;39827;49.652;18.770;2024-01-30T07:08:37;113.28;;;104.15;;
53915;SDS011;39827;49.652;18.770;2024-01-30T07:11:05;485.10;;;213.77;;
53915;SDS011;39827;49.652;18.770;2024-01-30T07:13:31;344.67;;;184.25;;
53915;SDS011;39827;49.652;18.770;2024-01-30T07:15:57;461.65;;;238.05;;
53915;SDS011;39827;49.652;18.770;2024-01-30T07:18:23;203.68;;;182.45;;
53915;SDS011;39827;49.652;18.770;2024-01-30T07:20:49;405.55;;;239.82;;
53915;SDS011;39827;49.652;18.770;2024-01-30T07:23:15;334.60;;;246.43;;
53915;SDS011;39827;49.652;18.770;2024-01-30T07:25:42;156.52;;;130.23;;
53915;SDS011;39827;49.652;18.770;2024-01-30T07:28:13;245.05;;;196.98;;
53915;SDS011;39827;49.652;18.770;2024-01-30T07:30:41;310.80;;;170.48;;
53915;SDS011;39827;49.652;18.770;2024-01-30T07:33:07;450.83;;;199.80;;
53915;SDS011;39827;49.652;18.770;2024-01-30T07:35:33;196.65;;;156.40;;
53915;SDS011;39827;49.652;18.770;2024-01-30T07:37:58;532.28;;;284.95;;
53915;SDS011;39827;49.652;18.770;2024-01-30T07:40:24;347.00;;;218.57;;
53915;SDS011;39827;49.652;18.770;2024-01-30T07:42:49;336.77;;;185.40;;
53915;SDS011;39827;49.652;18.770;2024-01-30T07:45:15;178.25;;;159.63;;
53915;SDS011;39827;49.652;18.770;2024-01-30T07:47:40;190.20;;;172.18;;
53915;SDS011;39827;49.652;18.770;2024-01-30T07:50:07;184.02;;;111.50;;
53915;SDS011;39827;49.652;18.770;2024-01-30T07:52:33;295.73;;;203.60;;
53915;SDS011;39827;49.652;18.770;2024-01-30T07:54:58;302.00;;;260.08;;
53915;SDS011;39827;49.652;18.770;2024-01-30T07:57:24;283.73;;;210.60;;
53915;SDS011;39827;49.652;18.770;2024-01-30T07:59:50;193.15;;;149.48;;
53915;SDS011;39827;49.652;18.770;2024-01-30T08:02:15;158.25;;;130.02;;
53915;SDS011;39827;49.652;18.770;2024-01-30T08:04:40;200.32;;;183.75;;
53915;SDS011;39827;49.652;18.770;2024-01-30T08:07:06;135.55;;;126.43;;
53915;SDS011;39827;49.652;18.770;2024-01-30T08:09:32;395.30;;;352.55;;
53915;SDS011;39827;49.652;18.770;2024-01-30T08:11:57;255.43;;;234.25;;
53915;SDS011;39827;49.652;18.770;2024-01-30T08:14:22;51.75;;;48.65;;
53915;SDS011;39827;49.652;18.770;2024-01-30T08:16:48;124.22;;;115.28;;
53915;SDS011;39827;49.652;18.770;2024-01-30T08:19:14;369.55;;;332.88;;
53915;SDS011;39827;49.652;18.770;2024-01-30T08:21:40;47.03;;;44.17;;
53915;SDS011;39827;49.652;18.770;2024-01-30T08:24:05;261.73;;;237.88;;
53915;SDS011;39827;49.652;18.770;2024-01-30T08:26:32;43.78;;;40.25;;
53915;SDS011;39827;49.652;18.770;2024-01-30T08:28:57;26.98;;;25.08;;
53915;SDS011;39827;49.652;18.770;2024-01-30T08:31:23;19.63;;;18.42;;
53915;SDS011;39827;49.652;18.770;2024-01-30T08:33:49;15.85;;;14.85;;
53915;SDS011;39827;49.652;18.770;2024-01-30T08:36:15;139.50;;;129.15;;
53915;SDS011;39827;49.652;18.770;2024-01-30T08:38:41;87.63;;;80.40;;
53915;SDS011;39827;49.652;18.770;2024-01-30T08:41:07;33.50;;;31.27;;
53915;SDS011;39827;49.652;18.770;2024-01-30T08:43:32;30.02;;;28.08;;
53915;SDS011;39827;49.652;18.770;2024-01-30T08:46:01;28.67;;;26.92;;
53915;SDS011;39827;49.652;18.770;2024-01-30T08:48:26;19.90;;;18.63;;
53915;SDS011;39827;49.652;18.770;2024-01-30T08:50:53;37.63;;;35.22;;
53915;SDS011;39827;49.652;18.770;2024-01-30T08:53:19;37.65;;;35.25;;
53915;SDS011;39827;49.652;18.770;2024-01-30T08:55:45;7.07;;;6.70;;
53915;SDS011;39827;49.652;18.770;2024-01-30T08:58:10;12.50;;;11.82;;
53915;SDS011;39827;49.652;18.770;2024-01-30T09:00:36;20.33;;;19.23;;
53915;SDS011;39827;49.652;18.770;2024-01-30T09:03:01;12.95;;;12.15;;
53915;SDS011;39827;49.652;18.770;2024-01-30T09:05:27;23.83;;;18.92;;
53915;SDS011;39827;49.652;18.770;2024-01-30T09:07:52;19.05;;;17.95;;
53915;SDS011;39827;49.652;18.770;2024-01-30T09:10:17;51.58;;;47.88;;
53915;SDS011;39827;49.652;18.770;2024-01-30T09:12:43;23.50;;;22.10;;
53915;SDS011;39827;49.652;18.770;2024-01-30T09:15:08;78.18;;;72.38;;
53915;SDS011;39827;49.652;18.770;2024-01-30T09:17:34;15.00;;;14.18;;
53915;SDS011;39827;49.652;18.770;2024-01-30T09:19:59;22.25;;;20.77;;
53915;SDS011;39827;49.652;18.770;2024-01-30T09:22:25;83.78;;;75.45;;
53915;SDS011;39827;49.652;18.770;2024-01-30T09:24:51;14.43;;;13.63;;
53915;SDS011;39827;49.652;18.770;2024-01-30T09:27:16;36.70;;;34.22;;
53915;SDS011;39827;49.652;18.770;2024-01-30T09:29:42;20.38;;;19.15;;
53915;SDS011;39827;49.652;18.770;2024-01-30T09:32:07;10.82;;;10.23;;
53915;SDS011;39827;49.652;18.770;2024-01-30T09:34:34;18.25;;;17.25;;
53915;SDS011;39827;49.652;18.770;2024-01-30T09:36:59;13.20;;;12.40;;
53915;SDS011;39827;49.652;18.770;2024-01-30T09:39:25;7.07;;;6.68;;
53915;SDS011;39827;49.652;18.770;2024-01-30T09:42:51;15.25;;;14.20;;
53915;SDS011;39827;49.652;18.770;2024-01-30T09:44:48;12.30;;;11.60;;
53915;SDS011;39827;49.652;18.770;2024-01-30T09:47:17;5.97;;;5.60;;
53915;SDS011;39827;49.652;18.770;2024-01-30T09:49:43;12.35;;;11.52;;
53915;SDS011;39827;49.652;18.770;2024-01-30T09:52:09;14.30;;;10.77;;
53915;SDS011;39827;49.652;18.770;2024-01-30T09:54:35;11.05;;;10.40;;
53915;SDS011;39827;49.652;18.770;2024-01-30T09:57:01;5.88;;;5.57;;
53915;SDS011;39827;49.652;18.770;2024-01-30T09:59:26;9.00;;;8.50;;
53915;SDS011;39827;49.652;18.770;2024-01-30T10:01:52;36.05;;;33.58;;
53915;SDS011;39827;49.652;18.770;2024-01-30T10:04:17;17.98;;;16.90;;
53915;SDS011;39827;49.652;18.770;2024-01-30T10:06:43;8.98;;;8.40;;
53915;SDS011;39827;49.652;18.770;2024-01-30T10:09:08;7.65;;;7.25;;
53915;SDS011;39827;49.652;18.770;2024-01-30T10:11:38;7.43;;;7.03;;
53915;SDS011;39827;49.652;18.770;2024-01-30T10:14:03;32.67;;;29.90;;
53915;SDS011;39827;49.652;18.770;2024-01-30T10:16:29;7.82;;;7.32;;
53915;SDS011;39827;49.652;18.770;2024-01-30T10:18:54;12.02;;;11.32;;
53915;SDS011;39827;49.652;18.770;2024-01-30T10:21:20;13.15;;;12.32;;
53915;SDS011;39827;49.652;18.770;2024-01-30T10:23:46;6.03;;;5.72;;
53915;SDS011;39827;49.652;18.770;2024-01-30T10:26:11;6.78;;;6.28;;
53915;SDS011;39827;49.652;18.770;2024-01-30T10:28:36;16.38;;;15.38;;
53915;SDS011;39827;49.652;18.770;2024-01-30T10:31:02;11.05;;;10.23;;
53915;SDS011;39827;49.652;18.770;2024-01-30T10:33:31;27.00;;;25.02;;
53915;SDS011;39827;49.652;18.770;2024-01-30T10:35:59;25.00;;;12.32;;
53915;SDS011;39827;49.652;18.770;2024-01-30T10:38:30;20.38;;;19.10;;
53915;SDS011;39827;49.652;18.770;2024-01-30T10:40:58;6.05;;;5.75;;
53915;SDS011;39827;49.652;18.770;2024-01-30T10:43:30;12.18;;;11.40;;
53915;SDS011;39827;49.652;18.770;2024-01-30T10:46:17;63.35;;;58.30;;
53915;SDS011;39827;49.652;18.770;2024-01-30T10:48:44;6.25;;;5.85;;
53915;SDS011;39827;49.652;18.770;2024-01-30T10:51:25;9.98;;;9.32;;
53915;SDS011;39827;49.652;18.770;2024-01-30T10:53:52;34.63;;;31.95;;
53915;SDS011;39827;49.652;18.770;2024-01-30T10:56:20;14.82;;;13.63;;
53915;SDS011;39827;49.652;18.770;2024-01-30T10:58:46;7.20;;;6.80;;
53915;SDS011;39827;49.652;18.770;2024-01-30T11:01:16;6.72;;;6.32;;
53915;SDS011;39827;49.652;18.770;2024-01-30T11:03:42;14.23;;;13.43;;
53915;SDS011;39827;49.652;18.770;2024-01-30T11:06:10;8.45;;;7.85;;
53915;SDS011;39827;49.652;18.770;2024-01-30T11:08:38;15.45;;;14.50;;
53915;SDS011;39827;49.652;18.770;2024-01-30T11:11:07;10.07;;;9.45;;
53915;SDS011;39827;49.652;18.770;2024-01-30T11:13:34;21.23;;;19.77;;
53915;SDS011;39827;49.652;18.770;2024-01-30T11:16:03;77.05;;;71.20;;
53915;SDS011;39827;49.652;18.770;2024-01-30T11:18:30;34.88;;;32.42;;
53915;SDS011;39827;49.652;18.770;2024-01-30T11:20:56;6.95;;;6.55;;
53915;SDS011;39827;49.652;18.770;2024-01-30T11:23:23;19.23;;;18.02;;
53915;SDS011;39827;49.652;18.770;2024-01-30T11:25:49;6.68;;;6.38;;
53915;SDS011;39827;49.652;18.770;2024-01-30T11:28:17;16.13;;;14.98;;
53915;SDS011;39827;49.652;18.770;2024-01-30T11:30:43;8.25;;;7.75;;
53915;SDS011;39827;49.652;18.770;2024-01-30T11:35:36;19.70;;;11.88;;
53915;SDS011;39827;49.652;18.770;2024-01-30T11:38:09;8.13;;;7.40;;
53915;SDS011;39827;49.652;18.770;2024-01-30T11:40:41;10.75;;;10.15;;
53915;SDS011;39827;49.652;18.770;2024-01-30T11:43:07;90.95;;;83.00;;
53915;SDS011;39827;49.652;18.770;2024-01-30T11:45:34;10.38;;;9.73;;
53915;SDS011;39827;49.652;18.770;2024-01-30T11:48:01;8.93;;;8.43;;
53915;SDS011;39827;49.652;18.770;2024-01-30T11:50:30;41.17;;;38.45;;
53915;SDS011;39827;49.652;18.770;2024-01-30T11:53:02;7.32;;;6.93;;
53915;SDS011;39827;49.652;18.770;2024-01-30T11:55:29;38.40;;;36.03;;
53915;SDS011;39827;49.652;18.770;2024-01-30T11:57:55;91.05;;;84.18;;
53915;SDS011;39827;49.652;18.770;2024-01-30T12:00:21;5.82;;;5.53;;
53915;SDS011;39827;49.652;18.770;2024-01-30T12:02:50;54.70;;;50.83;;
53915;SDS011;39827;49.652;18.770;2024-01-30T12:05:20;7.47;;;7.05;;
53915;SDS011;39827;49.652;18.770;2024-01-30T12:07:46;34.15;;;31.23;;
53915;SDS011;39827;49.652;18.770;2024-01-30T12:10:15;6.95;;;6.55;;
53915;SDS011;39827;49.652;18.770;2024-01-30T12:12:41;25.95;;;23.65;;
53915;SDS011;39827;49.652;18.770;2024-01-30T12:15:08;18.02;;;16.88;;
53915;SDS011;39827;49.652;18.770;2024-01-30T12:17:35;8.52;;;8.02;;
53915;SDS011;39827;49.652;18.770;2024-01-30T12:20:04;8.05;;;7.57;;
53915;SDS011;39827;49.652;18.770;2024-01-30T12:22:29;15.63;;;14.65;;
53915;SDS011;39827;49.652;18.770;2024-01-30T12:24:55;15.68;;;14.13;;
53915;SDS011;39827;49.652;18.770;2024-01-30T12:27:20;11.98;;;11.27;;
53915;SDS011;39827;49.652;18.770;2024-01-30T12:29:46;15.80;;;14.77;;
53915;SDS011;39827;49.652;18.770;2024-01-30T12:32:15;8.10;;;7.60;;
53915;SDS011;39827;49.652;18.770;2024-01-30T12:34:41;7.22;;;6.82;;
53915;SDS011;39827;49.652;18.770;2024-01-30T12:37:07;13.82;;;13.00;;
53915;SDS011;39827;49.652;18.770;2024-01-30T12:39:34;20.67;;;19.35;;
53915;SDS011;39827;49.652;18.770;2024-01-30T12:42:00;13.65;;;12.85;;
53915;SDS011;39827;49.652;18.770;2024-01-30T12:44:25;25.88;;;24.00;;
53915;SDS011;39827;49.652;18.770;2024-01-30T12:46:51;13.32;;;12.18;;
53915;SDS011;39827;49.652;18.770;2024-01-30T12:49:16;50.25;;;46.58;;
53915;SDS011;39827;49.652;18.770;2024-01-30T12:51:42;28.02;;;26.30;;
53915;SDS011;39827;49.652;18.770;2024-01-30T12:54:07;40.90;;;38.22;;
53915;SDS011;39827;49.652;18.770;2024-01-30T12:56:33;9.30;;;8.10;;
53915;SDS011;39827;49.652;18.770;2024-01-30T12:58:58;21.90;;;19.60;;
53915;SDS011;39827;49.652;18.770;2024-01-30T13:01:24;6.78;;;6.28;;
53915;SDS011;39827;49.652;18.770;2024-01-30T13:03:49;12.65;;;11.90;;
53915;SDS011;39827;49.652;18.770;2024-01-30T13:06:15;5.45;;;5.15;;
53915;SDS011;39827;49.652;18.770;2024-01-30T13:08:40;8.85;;;8.35;;
53915;SDS011;39827;49.652;18.770;2024-01-30T13:11:06;7.40;;;6.80;;
53915;SDS011;39827;49.652;18.770;2024-01-30T13:13:32;24.30;;;22.85;;
53915;SDS011;39827;49.652;18.770;2024-01-30T13:15:57;21.42;;;20.02;;
53915;SDS011;39827;49.652;18.770;2024-01-30T13:18:23;7.30;;;6.80;;
53915;SDS011;39827;49.652;18.770;2024-01-30T13:20:48;5.38;;;5.07;;
53915;SDS011;39827;49.652;18.770;2024-01-30T13:23:13;4.95;;;4.75;;
53915;SDS011;39827;49.652;18.770;2024-01-30T13:25:39;10.70;;;10.10;;
53915;SDS011;39827;49.652;18.770;2024-01-30T13:28:04;92.05;;;85.03;;
53915;SDS011;39827;49.652;18.770;2024-01-30T13:30:30;7.80;;;7.40;;
53915;SDS011;39827;49.652;18.770;2024-01-30T13:32:55;9.10;;;8.43;;
53915;SDS011;39827;49.652;18.770;2024-01-30T13:35:20;23.70;;;22.00;;
53915;SDS011;39827;49.652;18.770;2024-01-30T13:37:46;27.27;;;25.67;;
53915;SDS011;39827;49.652;18.770;2024-01-30T13:40:13;58.50;;;54.15;;
53915;SDS011;39827;49.652;18.770;2024-01-30T13:42:39;78.10;;;72.13;;
53915;SDS011;39827;49.652;18.770;2024-01-30T13:45:05;30.65;;;28.77;;
53915;SDS011;39827;49.652;18.770;2024-01-30T13:47:31;9.70;;;9.20;;
53915;SDS011;39827;49.652;18.770;2024-01-30T13:49:56;50.58;;;46.85;;
53915;SDS011;39827;49.652;18.770;2024-01-30T13:52:22;412.95;;;375.17;;
53915;SDS011;39827;49.652;18.770;2024-01-30T13:54:47;52.90;;;49.25;;